sensor_id;sensor_type;location;lat;lon;timestamp;temperature;humidity
64705;DHT22;51131;52.298;13.686;2023-06-14T00:01:14;21.00;58.40
64705;DHT22;51131;52.298;13.686;2023-06-14T00:03:41;21.00;58.40
64705;DHT22;51131;52.298;13.686;2023-06-14T00:06:08;21.00;58.30
64705;DHT22;51131;52.298;13.686;2023-06-14T00:08:34;21.00;58.80
64705;DHT22;51131;52.298;13.686;2023-06-14T00:11:01;21.20;58.80
64705;DHT22;51131;52.298;13.686;2023-06-14T00:13:28;21.00;58.90
64705;DHT22;51131;52.298;13.686;2023-06-14T00:15:54;21.10;58.80
64705;DHT22;51131;52.298;13.686;2023-06-14T00:18:21;21.10;58.20
64705;DHT22;51131;52.298;13.686;2023-06-14T00:20:50;21.10;58.20
64705;DHT22;51131;52.298;13.686;2023-06-14T00:23:18;21.10;58.10
64705;DHT22;51131;52.298;13.686;2023-06-14T00:25:45;21.00;58.10
64705;DHT22;51131;52.298;13.686;2023-06-14T00:28:11;21.10;58.60
64705;DHT22;51131;52.298;13.686;2023-06-14T00:30:40;21.10;58.20
64705;DHT22;51131;52.298;13.686;2023-06-14T00:33:07;21.10;58.50
64705;DHT22;51131;52.298;13.686;2023-06-14T00:35:34;21.10;58.60
64705;DHT22;51131;52.298;13.686;2023-06-14T00:38:00;21.30;58.20
64705;DHT22;51131;52.298;13.686;2023-06-14T00:40:28;21.10;58.10
64705;DHT22;51131;52.298;13.686;2023-06-14T00:42:54;21.10;58.40
64705;DHT22;51131;52.298;13.686;2023-06-14T00:45:21;21.10;58.40
64705;DHT22;51131;52.298;13.686;2023-06-14T00:47:48;21.10;58.30
64705;DHT22;51131;52.298;13.686;2023-06-14T00:50:17;21.30;58.40
64705;DHT22;51131;52.298;13.686;2023-06-14T00:52:44;21.10;58.30
64705;DHT22;51131;52.298;13.686;2023-06-14T00:55:11;21.10;58.40
64705;DHT22;51131;52.298;13.686;2023-06-14T00:57:38;21.10;58.50
64705;DHT22;51131;52.298;13.686;2023-06-14T01:00:06;21.10;59.00
64705;DHT22;51131;52.298;13.686;2023-06-14T01:02:36;21.00;58.60
64705;DHT22;51131;52.298;13.686;2023-06-14T01:05:04;21.00;58.80
64705;DHT22;51131;52.298;13.686;2023-06-14T01:07:37;21.00;59.10
64705;DHT22;51131;52.298;13.686;2023-06-14T01:10:09;20.90;58.30
64705;DHT22;51131;52.298;13.686;2023-06-14T01:12:43;21.00;58.70
64705;DHT22;51131;52.298;13.686;2023-06-14T01:15:12;21.00;58.90
64705;DHT22;51131;52.298;13.686;2023-06-14T01:17:39;21.00;58.80
64705;DHT22;51131;52.298;13.686;2023-06-14T01:20:11;21.00;58.70
64705;DHT22;51131;52.298;13.686;2023-06-14T01:22:50;21.00;58.70
64705;DHT22;51131;52.298;13.686;2023-06-14T01:25:18;21.00;58.80
64705;DHT22;51131;52.298;13.686;2023-06-14T01:27:48;21.00;58.90
64705;DHT22;51131;52.298;13.686;2023-06-14T01:30:15;21.00;58.90
64705;DHT22;51131;52.298;13.686;2023-06-14T01:32:43;21.00;59.10
64705;DHT22;51131;52.298;13.686;2023-06-14T01:35:11;20.80;59.00
64705;DHT22;51131;52.298;13.686;2023-06-14T01:37:37;21.10;59.50
64705;DHT22;51131;52.298;13.686;2023-06-14T01:40:06;21.00;59.60
64705;DHT22;51131;52.298;13.686;2023-06-14T01:42:36;21.00;59.60
64705;DHT22;51131;52.298;13.686;2023-06-14T01:45:04;21.00;59.20
64705;DHT22;51131;52.298;13.686;2023-06-14T01:47:32;21.00;59.10
64705;DHT22;51131;52.298;13.686;2023-06-14T01:49:59;21.00;59.00
64705;DHT22;51131;52.298;13.686;2023-06-14T01:52:26;21.10;58.80
64705;DHT22;51131;52.298;13.686;2023-06-14T01:54:52;21.10;58.90
64705;DHT22;51131;52.298;13.686;2023-06-14T01:57:19;21.10;58.80
64705;DHT22;51131;52.298;13.686;2023-06-14T01:59:46;21.10;58.70
64705;DHT22;51131;52.298;13.686;2023-06-14T02:02:14;21.10;58.70
64705;DHT22;51131;52.298;13.686;2023-06-14T02:04:41;21.10;58.70
64705;DHT22;51131;52.298;13.686;2023-06-14T02:07:08;21.10;58.70
64705;DHT22;51131;52.298;13.686;2023-06-14T02:09:35;21.70;59.40
64705;DHT22;51131;52.298;13.686;2023-06-14T02:12:02;21.10;59.00
64705;DHT22;51131;52.298;13.686;2023-06-14T02:14:28;21.10;58.70
64705;DHT22;51131;52.298;13.686;2023-06-14T02:16:55;21.10;58.80
64705;DHT22;51131;52.298;13.686;2023-06-14T02:19:22;21.10;59.20
64705;DHT22;51131;52.298;13.686;2023-06-14T02:21:48;21.00;59.00
64705;DHT22;51131;52.298;13.686;2023-06-14T02:24:15;21.10;59.10
64705;DHT22;51131;52.298;13.686;2023-06-14T02:26:42;21.00;58.90
64705;DHT22;51131;52.298;13.686;2023-06-14T02:29:08;21.10;59.20
64705;DHT22;51131;52.298;13.686;2023-06-14T02:31:37;21.00;59.50
64705;DHT22;51131;52.298;13.686;2023-06-14T02:34:04;21.10;59.40
64705;DHT22;51131;52.298;13.686;2023-06-14T02:36:31;21.10;58.90
64705;DHT22;51131;52.298;13.686;2023-06-14T02:38:57;21.20;58.50
64705;DHT22;51131;52.298;13.686;2023-06-14T02:41:24;21.20;58.30
64705;DHT22;51131;52.298;13.686;2023-06-14T02:43:52;21.30;58.30
64705;DHT22;51131;52.298;13.686;2023-06-14T02:46:19;21.30;58.20
64705;DHT22;51131;52.298;13.686;2023-06-14T02:48:46;21.30;58.00
64705;DHT22;51131;52.298;13.686;2023-06-14T02:51:12;21.50;58.20
64705;DHT22;51131;52.298;13.686;2023-06-14T02:53:39;21.40;58.00
64705;DHT22;51131;52.298;13.686;2023-06-14T02:56:07;21.40;58.00
64705;DHT22;51131;52.298;13.686;2023-06-14T02:58:33;21.40;58.00
64705;DHT22;51131;52.298;13.686;2023-06-14T03:01:00;21.30;58.00
64705;DHT22;51131;52.298;13.686;2023-06-14T03:03:28;21.30;58.10
64705;DHT22;51131;52.298;13.686;2023-06-14T03:05:55;21.50;58.30
64705;DHT22;51131;52.298;13.686;2023-06-14T03:08:22;21.30;58.10
64705;DHT22;51131;52.298;13.686;2023-06-14T03:10:54;21.40;58.40
64705;DHT22;51131;52.298;13.686;2023-06-14T03:13:23;21.30;58.40
64705;DHT22;51131;52.298;13.686;2023-06-14T03:15:50;21.30;58.40
64705;DHT22;51131;52.298;13.686;2023-06-14T03:18:17;21.20;58.40
64705;DHT22;51131;52.298;13.686;2023-06-14T03:20:44;21.20;58.60
64705;DHT22;51131;52.298;13.686;2023-06-14T03:23:12;21.20;58.60
64705;DHT22;51131;52.298;13.686;2023-06-14T03:25:38;21.20;58.60
64705;DHT22;51131;52.298;13.686;2023-06-14T03:28:08;21.30;58.80
64705;DHT22;51131;52.298;13.686;2023-06-14T03:30:35;21.20;58.70
64705;DHT22;51131;52.298;13.686;2023-06-14T03:33:02;21.20;58.70
64705;DHT22;51131;52.298;13.686;2023-06-14T03:35:28;21.20;58.80
64705;DHT22;51131;52.298;13.686;2023-06-14T03:37:55;21.20;58.90
64705;DHT22;51131;52.298;13.686;2023-06-14T03:40:22;21.20;58.80
64705;DHT22;51131;52.298;13.686;2023-06-14T03:42:53;21.10;58.80
64705;DHT22;51131;52.298;13.686;2023-06-14T03:45:20;21.40;59.10
64705;DHT22;51131;52.298;13.686;2023-06-14T03:47:47;21.20;59.00
64705;DHT22;51131;52.298;13.686;2023-06-14T03:50:14;21.10;59.00
64705;DHT22;51131;52.298;13.686;2023-06-14T03:52:42;21.10;59.00
64705;DHT22;51131;52.298;13.686;2023-06-14T03:55:10;21.10;59.10
64705;DHT22;51131;52.298;13.686;2023-06-14T03:57:42;21.10;59.30
64705;DHT22;51131;52.298;13.686;2023-06-14T04:00:09;21.10;59.20
64705;DHT22;51131;52.298;13.686;2023-06-14T04:02:36;21.10;59.40
64705;DHT22;51131;52.298;13.686;2023-06-14T04:05:03;20.90;59.20
64705;DHT22;51131;52.298;13.686;2023-06-14T04:07:30;21.10;59.30
64705;DHT22;51131;52.298;13.686;2023-06-14T04:09:57;21.10;59.40
64705;DHT22;51131;52.298;13.686;2023-06-14T04:12:23;21.00;59.40
64705;DHT22;51131;52.298;13.686;2023-06-14T04:14:50;21.10;59.50
64705;DHT22;51131;52.298;13.686;2023-06-14T04:17:17;21.10;59.50
64705;DHT22;51131;52.298;13.686;2023-06-14T04:19:44;21.20;59.60
64705;DHT22;51131;52.298;13.686;2023-06-14T04:22:10;21.00;59.50
64705;DHT22;51131;52.298;13.686;2023-06-14T04:24:37;21.20;59.80
64705;DHT22;51131;52.298;13.686;2023-06-14T04:27:04;21.00;59.50
64705;DHT22;51131;52.298;13.686;2023-06-14T04:29:31;21.00;59.50
64705;DHT22;51131;52.298;13.686;2023-06-14T04:31:58;21.00;59.80
64705;DHT22;51131;52.298;13.686;2023-06-14T04:34:25;21.00;59.70
64705;DHT22;51131;52.298;13.686;2023-06-14T04:36:56;21.00;59.80
64705;DHT22;51131;52.298;13.686;2023-06-14T04:39:23;21.00;59.70
64705;DHT22;51131;52.298;13.686;2023-06-14T04:41:51;21.00;59.80
64705;DHT22;51131;52.298;13.686;2023-06-14T04:44:19;21.00;59.70
64705;DHT22;51131;52.298;13.686;2023-06-14T04:46:46;21.10;59.70
64705;DHT22;51131;52.298;13.686;2023-06-14T04:49:14;21.10;59.50
64705;DHT22;51131;52.298;13.686;2023-06-14T04:51:44;21.20;59.50
64705;DHT22;51131;52.298;13.686;2023-06-14T04:54:11;21.10;59.30
64705;DHT22;51131;52.298;13.686;2023-06-14T04:56:41;21.10;59.20
64705;DHT22;51131;52.298;13.686;2023-06-14T04:59:08;21.20;59.20
64705;DHT22;51131;52.298;13.686;2023-06-14T05:01:35;21.20;59.30
64705;DHT22;51131;52.298;13.686;2023-06-14T05:04:04;21.20;59.60
64705;DHT22;51131;52.298;13.686;2023-06-14T05:06:31;21.10;59.30
64705;DHT22;51131;52.298;13.686;2023-06-14T05:08:58;21.20;59.40
64705;DHT22;51131;52.298;13.686;2023-06-14T05:11:25;21.20;59.40
64705;DHT22;51131;52.298;13.686;2023-06-14T05:13:53;21.20;59.50
64705;DHT22;51131;52.298;13.686;2023-06-14T05:16:19;21.20;59.40
64705;DHT22;51131;52.298;13.686;2023-06-14T05:18:46;21.20;59.50
64705;DHT22;51131;52.298;13.686;2023-06-14T05:21:13;21.20;59.50
64705;DHT22;51131;52.298;13.686;2023-06-14T05:23:45;21.20;59.60
64705;DHT22;51131;52.298;13.686;2023-06-14T05:26:12;21.20;59.60
64705;DHT22;51131;52.298;13.686;2023-06-14T05:28:38;21.20;59.60
64705;DHT22;51131;52.298;13.686;2023-06-14T05:31:05;21.20;59.70
64705;DHT22;51131;52.298;13.686;2023-06-14T05:33:32;21.10;59.70
64705;DHT22;51131;52.298;13.686;2023-06-14T05:35:59;21.20;59.80
64705;DHT22;51131;52.298;13.686;2023-06-14T05:38:25;21.10;59.80
64705;DHT22;51131;52.298;13.686;2023-06-14T05:40:52;21.10;59.90
64705;DHT22;51131;52.298;13.686;2023-06-14T05:43:19;21.10;59.90
64705;DHT22;51131;52.298;13.686;2023-06-14T05:45:46;21.10;59.90
64705;DHT22;51131;52.298;13.686;2023-06-14T05:48:13;21.10;60.00
64705;DHT22;51131;52.298;13.686;2023-06-14T05:50:40;21.10;60.10
64705;DHT22;51131;52.298;13.686;2023-06-14T05:53:06;21.00;60.10
64705;DHT22;51131;52.298;13.686;2023-06-14T05:55:33;21.10;60.40
64705;DHT22;51131;52.298;13.686;2023-06-14T05:58:00;21.10;60.30
64705;DHT22;51131;52.298;13.686;2023-06-14T06:00:27;21.30;60.70
64705;DHT22;51131;52.298;13.686;2023-06-14T06:02:57;21.10;60.40
64705;DHT22;51131;52.298;13.686;2023-06-14T06:05:28;21.10;60.30
64705;DHT22;51131;52.298;13.686;2023-06-14T06:07:54;21.10;60.30
64705;DHT22;51131;52.298;13.686;2023-06-14T06:10:22;21.00;60.50
64705;DHT22;51131;52.298;13.686;2023-06-14T06:12:49;21.10;60.50
64705;DHT22;51131;52.298;13.686;2023-06-14T06:15:18;21.10;60.60
64705;DHT22;51131;52.298;13.686;2023-06-14T06:17:45;21.00;60.50
64705;DHT22;51131;52.298;13.686;2023-06-14T06:20:22;21.10;60.60
64705;DHT22;51131;52.298;13.686;2023-06-14T06:22:55;21.00;60.70
64705;DHT22;51131;52.298;13.686;2023-06-14T06:25:22;21.00;60.70
64705;DHT22;51131;52.298;13.686;2023-06-14T06:27:53;21.00;60.80
64705;DHT22;51131;52.298;13.686;2023-06-14T06:30:20;21.00;60.90
64705;DHT22;51131;52.298;13.686;2023-06-14T06:32:47;21.00;61.60
64705;DHT22;51131;52.298;13.686;2023-06-14T06:35:14;21.00;60.90
64705;DHT22;51131;52.298;13.686;2023-06-14T06:37:41;21.00;60.70
64705;DHT22;51131;52.298;13.686;2023-06-14T06:40:08;21.00;60.60
64705;DHT22;51131;52.298;13.686;2023-06-14T06:42:35;21.00;60.50
64705;DHT22;51131;52.298;13.686;2023-06-14T06:45:02;21.10;60.80
64705;DHT22;51131;52.298;13.686;2023-06-14T06:47:29;21.10;60.50
64705;DHT22;51131;52.298;13.686;2023-06-14T06:49:55;21.10;60.50
64705;DHT22;51131;52.298;13.686;2023-06-14T06:52:22;21.10;60.50
64705;DHT22;51131;52.298;13.686;2023-06-14T06:54:49;21.10;60.50
64705;DHT22;51131;52.298;13.686;2023-06-14T06:57:17;21.10;60.60
64705;DHT22;51131;52.298;13.686;2023-06-14T06:59:43;21.10;60.50
64705;DHT22;51131;52.298;13.686;2023-06-14T07:02:10;21.10;60.40
64705;DHT22;51131;52.298;13.686;2023-06-14T07:04:37;21.10;60.80
64705;DHT22;51131;52.298;13.686;2023-06-14T07:07:03;21.10;60.60
64705;DHT22;51131;52.298;13.686;2023-06-14T07:09:30;21.10;60.70
64705;DHT22;51131;52.298;13.686;2023-06-14T07:11:57;21.10;60.80
64705;DHT22;51131;52.298;13.686;2023-06-14T07:14:23;21.10;60.90
64705;DHT22;51131;52.298;13.686;2023-06-14T07:16:50;21.10;60.80
64705;DHT22;51131;52.298;13.686;2023-06-14T07:19:17;21.10;60.80
64705;DHT22;51131;52.298;13.686;2023-06-14T07:21:44;21.10;61.10
64705;DHT22;51131;52.298;13.686;2023-06-14T07:24:11;21.10;60.90
64705;DHT22;51131;52.298;13.686;2023-06-14T07:26:38;21.20;61.00
64705;DHT22;51131;52.298;13.686;2023-06-14T07:29:04;21.10;60.80
64705;DHT22;51131;52.298;13.686;2023-06-14T07:31:31;21.60;61.20
64705;DHT22;51131;52.298;13.686;2023-06-14T07:33:58;21.20;60.70
64705;DHT22;51131;52.298;13.686;2023-06-14T07:36:25;21.30;60.60
64705;DHT22;51131;52.298;13.686;2023-06-14T07:38:52;21.50;60.70
64705;DHT22;51131;52.298;13.686;2023-06-14T07:41:19;21.40;60.40
64705;DHT22;51131;52.298;13.686;2023-06-14T07:43:45;21.50;60.30
64705;DHT22;51131;52.298;13.686;2023-06-14T07:46:12;21.50;60.30
64705;DHT22;51131;52.298;13.686;2023-06-14T07:48:39;21.50;60.10
64705;DHT22;51131;52.298;13.686;2023-06-14T07:51:06;21.60;60.10
64705;DHT22;51131;52.298;13.686;2023-06-14T07:53:33;21.40;60.50
64705;DHT22;51131;52.298;13.686;2023-06-14T07:55:59;21.50;59.90
64705;DHT22;51131;52.298;13.686;2023-06-14T07:58:26;21.50;60.10
64705;DHT22;51131;52.298;13.686;2023-06-14T08:00:53;21.50;60.10
64705;DHT22;51131;52.298;13.686;2023-06-14T08:03:20;21.50;60.10
64705;DHT22;51131;52.298;13.686;2023-06-14T08:05:46;21.40;60.20
64705;DHT22;51131;52.298;13.686;2023-06-14T08:08:13;21.40;60.20
64705;DHT22;51131;52.298;13.686;2023-06-14T08:10:40;21.40;60.10
64705;DHT22;51131;52.298;13.686;2023-06-14T08:13:06;21.50;60.50
64705;DHT22;51131;52.298;13.686;2023-06-14T08:15:33;21.40;60.30
64705;DHT22;51131;52.298;13.686;2023-06-14T08:18:00;21.40;60.50
64705;DHT22;51131;52.298;13.686;2023-06-14T08:20:27;21.30;60.60
64705;DHT22;51131;52.298;13.686;2023-06-14T08:22:54;21.30;60.70
64705;DHT22;51131;52.298;13.686;2023-06-14T08:25:23;21.30;60.60
64705;DHT22;51131;52.298;13.686;2023-06-14T08:27:49;21.50;60.90
64705;DHT22;51131;52.298;13.686;2023-06-14T08:30:16;21.30;60.80
64705;DHT22;51131;52.298;13.686;2023-06-14T08:32:44;21.20;60.80
64705;DHT22;51131;52.298;13.686;2023-06-14T08:35:11;21.20;61.00
64705;DHT22;51131;52.298;13.686;2023-06-14T08:37:42;21.20;60.90
64705;DHT22;51131;52.298;13.686;2023-06-14T08:40:18;21.10;60.80
64705;DHT22;51131;52.298;13.686;2023-06-14T08:42:47;21.10;60.80
64705;DHT22;51131;52.298;13.686;2023-06-14T08:45:13;21.30;61.30
64705;DHT22;51131;52.298;13.686;2023-06-14T08:47:41;21.00;61.10
64705;DHT22;51131;52.298;13.686;2023-06-14T08:50:08;21.00;61.10
64705;DHT22;51131;52.298;13.686;2023-06-14T08:52:51;21.10;61.10
64705;DHT22;51131;52.298;13.686;2023-06-14T08:55:21;21.00;61.00
64705;DHT22;51131;52.298;13.686;2023-06-14T08:57:53;21.10;61.40
64705;DHT22;51131;52.298;13.686;2023-06-14T09:00:21;21.00;61.40
64705;DHT22;51131;52.298;13.686;2023-06-14T09:02:48;21.00;60.80
64705;DHT22;51131;52.298;13.686;2023-06-14T09:05:15;21.00;60.70
64705;DHT22;51131;52.298;13.686;2023-06-14T09:07:44;21.00;61.00
64705;DHT22;51131;52.298;13.686;2023-06-14T09:10:12;21.10;61.30
64705;DHT22;51131;52.298;13.686;2023-06-14T09:12:39;21.00;61.60
64705;DHT22;51131;52.298;13.686;2023-06-14T09:15:06;21.00;62.00
64705;DHT22;51131;52.298;13.686;2023-06-14T09:17:35;21.00;62.40
64705;DHT22;51131;52.298;13.686;2023-06-14T09:20:03;21.00;61.30
64705;DHT22;51131;52.298;13.686;2023-06-14T09:22:33;21.00;61.60
64705;DHT22;51131;52.298;13.686;2023-06-14T09:24:59;21.10;61.10
64705;DHT22;51131;52.298;13.686;2023-06-14T09:27:26;21.00;61.40
64705;DHT22;51131;52.298;13.686;2023-06-14T09:29:53;21.00;61.90
64705;DHT22;51131;52.298;13.686;2023-06-14T09:32:21;21.00;62.10
64705;DHT22;51131;52.298;13.686;2023-06-14T09:34:48;21.10;62.10
64705;DHT22;51131;52.298;13.686;2023-06-14T09:37:27;21.10;62.50
64705;DHT22;51131;52.298;13.686;2023-06-14T09:39:54;21.00;61.50
64705;DHT22;51131;52.298;13.686;2023-06-14T09:42:22;21.00;62.10
64705;DHT22;51131;52.298;13.686;2023-06-14T09:44:52;21.10;61.20
64705;DHT22;51131;52.298;13.686;2023-06-14T09:47:20;21.00;60.70
64705;DHT22;51131;52.298;13.686;2023-06-14T09:49:48;21.10;61.10
64705;DHT22;51131;52.298;13.686;2023-06-14T09:52:15;21.10;60.50
64705;DHT22;51131;52.298;13.686;2023-06-14T09:54:43;21.10;60.60
64705;DHT22;51131;52.298;13.686;2023-06-14T09:57:13;21.10;60.70
64705;DHT22;51131;52.298;13.686;2023-06-14T09:59:40;21.10;61.40
64705;DHT22;51131;52.298;13.686;2023-06-14T10:02:15;21.20;61.00
64705;DHT22;51131;52.298;13.686;2023-06-14T10:04:46;21.20;61.50
64705;DHT22;51131;52.298;13.686;2023-06-14T10:07:17;21.10;60.10
64705;DHT22;51131;52.298;13.686;2023-06-14T10:09:46;21.10;60.60
64705;DHT22;51131;52.298;13.686;2023-06-14T10:12:18;21.10;60.80
64705;DHT22;51131;52.298;13.686;2023-06-14T10:14:49;21.10;60.50
64705;DHT22;51131;52.298;13.686;2023-06-14T10:17:21;21.30;60.50
64705;DHT22;51131;52.298;13.686;2023-06-14T10:19:50;21.20;60.60
64705;DHT22;51131;52.298;13.686;2023-06-14T10:22:22;21.40;61.20
64705;DHT22;51131;52.298;13.686;2023-06-14T10:24:51;21.20;60.50
64705;DHT22;51131;52.298;13.686;2023-06-14T10:27:18;21.20;60.20
64705;DHT22;51131;52.298;13.686;2023-06-14T10:32:23;21.10;59.70
64705;DHT22;51131;52.298;13.686;2023-06-14T10:34:59;21.10;59.50
64705;DHT22;51131;52.298;13.686;2023-06-14T10:37:26;21.10;59.90
64705;DHT22;51131;52.298;13.686;2023-06-14T10:39:53;21.20;59.80
64705;DHT22;51131;52.298;13.686;2023-06-14T10:42:20;21.10;59.60
64705;DHT22;51131;52.298;13.686;2023-06-14T10:44:53;21.10;59.60
64705;DHT22;51131;52.298;13.686;2023-06-14T10:47:23;21.10;59.90
64705;DHT22;51131;52.298;13.686;2023-06-14T10:49:54;21.10;59.40
64705;DHT22;51131;52.298;13.686;2023-06-14T10:52:25;21.10;59.60
64705;DHT22;51131;52.298;13.686;2023-06-14T10:57:24;21.10;59.60
64705;DHT22;51131;52.298;13.686;2023-06-14T10:59:51;21.10;60.30
64705;DHT22;51131;52.298;13.686;2023-06-14T11:04:50;21.10;60.40
64705;DHT22;51131;52.298;13.686;2023-06-14T11:09:50;21.10;60.20
64705;DHT22;51131;52.298;13.686;2023-06-14T11:12:18;21.20;60.30
64705;DHT22;51131;52.298;13.686;2023-06-14T11:14:47;21.10;60.10
64705;DHT22;51131;52.298;13.686;2023-06-14T11:17:14;21.10;60.20
64705;DHT22;51131;52.298;13.686;2023-06-14T11:19:41;21.10;59.70
64705;DHT22;51131;52.298;13.686;2023-06-14T11:22:08;21.10;60.10
64705;DHT22;51131;52.298;13.686;2023-06-14T11:24:35;21.00;59.70
64705;DHT22;51131;52.298;13.686;2023-06-14T11:27:03;21.10;60.50
64705;DHT22;51131;52.298;13.686;2023-06-14T11:29:30;21.10;60.60
64705;DHT22;51131;52.298;13.686;2023-06-14T11:31:57;21.10;60.60
64705;DHT22;51131;52.298;13.686;2023-06-14T11:34:24;21.10;60.40
64705;DHT22;51131;52.298;13.686;2023-06-14T11:36:51;21.10;59.70
64705;DHT22;51131;52.298;13.686;2023-06-14T11:39:17;21.10;60.70
64705;DHT22;51131;52.298;13.686;2023-06-14T11:41:50;21.10;60.90
64705;DHT22;51131;52.298;13.686;2023-06-14T11:44:17;21.20;60.90
64705;DHT22;51131;52.298;13.686;2023-06-14T11:46:44;21.10;60.60
64705;DHT22;51131;52.298;13.686;2023-06-14T11:49:11;21.10;61.20
64705;DHT22;51131;52.298;13.686;2023-06-14T11:51:37;21.10;60.10
64705;DHT22;51131;52.298;13.686;2023-06-14T11:54:05;21.20;60.40
64705;DHT22;51131;52.298;13.686;2023-06-14T11:56:32;21.10;60.90
64705;DHT22;51131;52.298;13.686;2023-06-14T11:58:59;21.10;61.30
64705;DHT22;51131;52.298;13.686;2023-06-14T12:01:26;21.20;60.70
64705;DHT22;51131;52.298;13.686;2023-06-14T12:03:54;21.10;61.10
64705;DHT22;51131;52.298;13.686;2023-06-14T12:06:28;21.10;60.30
64705;DHT22;51131;52.298;13.686;2023-06-14T12:08:56;21.10;60.90
64705;DHT22;51131;52.298;13.686;2023-06-14T12:11:23;21.10;61.00
64705;DHT22;51131;52.298;13.686;2023-06-14T12:13:49;21.10;60.00
64705;DHT22;51131;52.298;13.686;2023-06-14T12:16:16;21.10;60.90
64705;DHT22;51131;52.298;13.686;2023-06-14T12:18:43;21.10;60.30
64705;DHT22;51131;52.298;13.686;2023-06-14T12:21:10;21.10;59.70
64705;DHT22;51131;52.298;13.686;2023-06-14T12:23:47;21.10;60.10
64705;DHT22;51131;52.298;13.686;2023-06-14T12:26:18;21.10;59.90
64705;DHT22;51131;52.298;13.686;2023-06-14T12:28:45;21.10;59.30
64705;DHT22;51131;52.298;13.686;2023-06-14T12:31:12;21.10;59.40
64705;DHT22;51131;52.298;13.686;2023-06-14T12:33:40;21.10;59.60
64705;DHT22;51131;52.298;13.686;2023-06-14T12:36:08;21.10;59.30
64705;DHT22;51131;52.298;13.686;2023-06-14T12:38:35;21.10;59.10
64705;DHT22;51131;52.298;13.686;2023-06-14T12:41:02;21.10;59.90
64705;DHT22;51131;52.298;13.686;2023-06-14T12:43:29;21.10;60.50
64705;DHT22;51131;52.298;13.686;2023-06-14T12:45:56;21.10;60.50
64705;DHT22;51131;52.298;13.686;2023-06-14T12:48:22;21.10;60.40
64705;DHT22;51131;52.298;13.686;2023-06-14T12:50:49;21.10;60.20
64705;DHT22;51131;52.298;13.686;2023-06-14T12:53:16;21.20;60.50
64705;DHT22;51131;52.298;13.686;2023-06-14T12:55:43;21.10;60.60
64705;DHT22;51131;52.298;13.686;2023-06-14T12:58:10;21.10;60.20
64705;DHT22;51131;52.298;13.686;2023-06-14T13:00:39;21.10;59.90
64705;DHT22;51131;52.298;13.686;2023-06-14T13:03:06;21.10;60.00
64705;DHT22;51131;52.298;13.686;2023-06-14T13:05:33;21.10;60.00
64705;DHT22;51131;52.298;13.686;2023-06-14T13:08:00;21.10;59.90
64705;DHT22;51131;52.298;13.686;2023-06-14T13:10:27;21.10;60.50
64705;DHT22;51131;52.298;13.686;2023-06-14T13:12:54;21.10;61.30
64705;DHT22;51131;52.298;13.686;2023-06-14T13:15:21;21.00;61.00
64705;DHT22;51131;52.298;13.686;2023-06-14T13:17:47;21.10;61.20
64705;DHT22;51131;52.298;13.686;2023-06-14T13:20:15;21.10;61.00
64705;DHT22;51131;52.298;13.686;2023-06-14T13:22:46;21.00;60.50
64705;DHT22;51131;52.298;13.686;2023-06-14T13:25:13;21.10;60.60
64705;DHT22;51131;52.298;13.686;2023-06-14T13:27:39;21.20;60.50
64705;DHT22;51131;52.298;13.686;2023-06-14T13:30:06;21.00;61.00
64705;DHT22;51131;52.298;13.686;2023-06-14T13:32:33;21.10;61.10
64705;DHT22;51131;52.298;13.686;2023-06-14T13:35:00;21.10;61.30
64705;DHT22;51131;52.298;13.686;2023-06-14T13:37:27;21.10;61.30
64705;DHT22;51131;52.298;13.686;2023-06-14T13:39:54;21.10;61.30
64705;DHT22;51131;52.298;13.686;2023-06-14T13:42:21;21.00;61.40
64705;DHT22;51131;52.298;13.686;2023-06-14T13:44:48;21.00;61.70
64705;DHT22;51131;52.298;13.686;2023-06-14T13:47:15;21.00;61.10
64705;DHT22;51131;52.298;13.686;2023-06-14T13:49:42;21.10;60.90
64705;DHT22;51131;52.298;13.686;2023-06-14T13:52:09;21.00;61.00
64705;DHT22;51131;52.298;13.686;2023-06-14T13:54:35;21.00;60.30
64705;DHT22;51131;52.298;13.686;2023-06-14T13:57:03;21.00;60.80
64705;DHT22;51131;52.298;13.686;2023-06-14T13:59:29;21.00;60.80
64705;DHT22;51131;52.298;13.686;2023-06-14T14:01:56;21.10;60.50
64705;DHT22;51131;52.298;13.686;2023-06-14T14:04:23;21.00;60.10
64705;DHT22;51131;52.298;13.686;2023-06-14T14:06:50;21.00;60.90
64705;DHT22;51131;52.298;13.686;2023-06-14T14:09:16;21.10;61.70
64705;DHT22;51131;52.298;13.686;2023-06-14T14:11:43;21.00;60.30
64705;DHT22;51131;52.298;13.686;2023-06-14T14:14:10;21.10;60.80
64705;DHT22;51131;52.298;13.686;2023-06-14T14:16:37;21.40;61.20
64705;DHT22;51131;52.298;13.686;2023-06-14T14:19:04;21.00;61.30
64705;DHT22;51131;52.298;13.686;2023-06-14T14:21:32;21.00;61.50
64705;DHT22;51131;52.298;13.686;2023-06-14T14:23:59;21.00;62.10
64705;DHT22;51131;52.298;13.686;2023-06-14T14:26:25;21.00;62.50
64705;DHT22;51131;52.298;13.686;2023-06-14T14:28:52;21.00;61.90
64705;DHT22;51131;52.298;13.686;2023-06-14T14:31:19;21.00;61.10
64705;DHT22;51131;52.298;13.686;2023-06-14T14:33:46;21.10;60.60
64705;DHT22;51131;52.298;13.686;2023-06-14T14:36:12;21.10;59.90
64705;DHT22;51131;52.298;13.686;2023-06-14T14:38:40;21.10;59.30
64705;DHT22;51131;52.298;13.686;2023-06-14T14:41:06;21.10;58.50
64705;DHT22;51131;52.298;13.686;2023-06-14T14:43:33;21.10;58.70
64705;DHT22;51131;52.298;13.686;2023-06-14T14:46:00;21.20;59.80
64705;DHT22;51131;52.298;13.686;2023-06-14T14:48:27;21.20;59.60
64705;DHT22;51131;52.298;13.686;2023-06-14T14:50:53;21.20;58.60
64705;DHT22;51131;52.298;13.686;2023-06-14T14:53:20;21.20;58.80
64705;DHT22;51131;52.298;13.686;2023-06-14T14:55:46;21.20;59.00
64705;DHT22;51131;52.298;13.686;2023-06-14T14:58:13;21.30;59.50
64705;DHT22;51131;52.298;13.686;2023-06-14T15:00:44;21.30;59.60
64705;DHT22;51131;52.298;13.686;2023-06-14T15:03:11;21.30;58.90
64705;DHT22;51131;52.298;13.686;2023-06-14T15:05:38;21.20;59.30
64705;DHT22;51131;52.298;13.686;2023-06-14T15:08:05;21.20;59.60
64705;DHT22;51131;52.298;13.686;2023-06-14T15:10:39;21.20;60.40
64705;DHT22;51131;52.298;13.686;2023-06-14T15:13:09;21.20;60.40
64705;DHT22;51131;52.298;13.686;2023-06-14T15:15:36;21.20;60.30
64705;DHT22;51131;52.298;13.686;2023-06-14T15:18:03;21.20;59.60
64705;DHT22;51131;52.298;13.686;2023-06-14T15:20:30;21.20;59.50
64705;DHT22;51131;52.298;13.686;2023-06-14T15:22:57;21.20;59.40
64705;DHT22;51131;52.298;13.686;2023-06-14T15:25:27;21.20;58.50
64705;DHT22;51131;52.298;13.686;2023-06-14T15:27:54;21.20;57.60